Time;durP1;ratioP1;P1;durP2;ratioP2;P2;SDS_P1;SDS_P2;PMS_P1;PMS_P2;Temp;Humidity;BMP_temperature;BMP_pressure;BME280_temperature;BME280_humidity;BME280_pressure;Samples;Min_cycle;Max_cycle;Signal;HPM_P1;HPM_P2
2022/03/16 00:00:19;;;;;;;24.08;8.95;;;7.70;79.50;;;;;;4934185;29;20418;-70
2022/03/16 00:02:48;;;;;;;29.67;10.40;;;7.70;79.60;;;;;;4918612;29;20039;-70
2022/03/16 00:05:16;;;;;;;27.75;10.20;;;7.70;79.60;;;;;;4934746;29;20040;-70
2022/03/16 00:07:44;;;;;;;24.38;9.93;;;7.70;79.70;;;;;;4935471;29;20393;-70
2022/03/16 00:10:12;;;;;;;24.13;9.65;;;7.70;79.90;;;;;;4935347;29;20054;-70
2022/03/16 00:12:41;;;;;;;26.83;9.82;;;7.60;80.00;;;;;;4935216;29;20040;-70
2022/03/16 00:15:09;;;;;;;23.60;9.63;;;7.60;80.10;;;;;;4935540;29;20043;-70
2022/03/16 00:17:37;;;;;;;23.92;9.65;;;7.60;80.10;;;;;;4917980;29;20047;-69
2022/03/16 00:20:05;;;;;;;23.02;10.50;;;7.50;80.20;;;;;;4935339;29;20044;-70
2022/03/16 00:22:33;;;;;;;22.10;10.43;;;7.50;80.30;;;;;;4932076;29;20036;-69
2022/03/16 00:25:01;;;;;;;23.23;9.90;;;7.40;80.40;;;;;;4915714;29;20040;-69
2022/03/16 00:27:29;;;;;;;19.27;10.23;;;7.50;80.60;;;;;;4935499;29;20401;-69
2022/03/16 00:29:58;;;;;;;21.52;10.75;;;7.50;80.70;;;;;;4918512;29;20048;-69
2022/03/16 00:32:26;;;;;;;28.25;10.85;;;7.40;80.80;;;;;;4916976;29;20054;-69
2022/03/16 00:34:54;;;;;;;18.67;10.35;;;7.50;80.90;;;;;;4934930;29;20051;-69
2022/03/16 00:37:22;;;;;;;27.58;12.20;;;7.50;81.00;;;;;;4917292;29;20051;-69
2022/03/16 00:39:50;;;;;;;23.85;11.10;;;7.60;81.00;;;;;;4934489;29;20058;-69
2022/03/16 00:42:17;;;;;;;25.95;10.43;;;7.60;81.10;;;;;;4934229;29;20067;-69
2022/03/16 00:44:45;;;;;;;26.95;11.57;;;7.70;81.10;;;;;;4917765;29;20062;-69
2022/03/16 00:47:12;;;;;;;23.33;11.77;;;7.80;81.20;;;;;;4934348;29;20040;-69
2022/03/16 00:49:40;;;;;;;30.45;12.15;;;7.80;81.20;;;;;;4934574;29;20062;-69
2022/03/16 00:52:09;;;;;;;28.33;12.02;;;7.80;81.20;;;;;;4917345;29;20058;-69
2022/03/16 00:54:37;;;;;;;24.95;12.30;;;7.80;81.30;;;;;;4917763;29;20047;-69
2022/03/16 00:57:04;;;;;;;25.05;12.88;;;7.90;81.40;;;;;;4934726;29;20050;-69
2022/03/16 00:59:32;;;;;;;31.13;13.38;;;7.90;81.40;;;;;;4934610;29;20035;-69
2022/03/16 01:02:00;;;;;;;26.05;12.30;;;7.90;81.40;;;;;;4917475;29;20048;-69
2022/03/16 01:04:29;;;;;;;30.55;12.90;;;8.00;81.50;;;;;;4933301;29;20055;-70
2022/03/16 01:06:58;;;;;;;25.50;12.10;;;8.00;81.60;;;;;;4917854;29;20039;-69
2022/03/16 01:09:27;;;;;;;29.35;12.13;;;7.90;81.60;;;;;;4916974;29;20103;-70
2022/03/16 01:11:55;;;;;;;28.30;12.93;;;7.90;81.70;;;;;;4916091;29;20051;-69
2022/03/16 01:14:22;;;;;;;31.88;13.23;;;7.90;81.80;;;;;;4918043;29;20032;-69
2022/03/16 01:16:50;;;;;;;27.80;13.48;;;7.90;81.80;;;;;;4901729;29;20052;-70
2022/03/16 01:19:18;;;;;;;30.08;13.57;;;7.80;81.90;;;;;;4933516;29;20485;-69
2022/03/16 01:21:49;;;;;;;23.70;13.30;;;7.80;82.00;;;;;;4932578;29;20047;-71
2022/03/16 01:24:16;;;;;;;33.42;14.60;;;7.80;82.10;;;;;;4901424;29;20051;-69
2022/03/16 01:26:44;;;;;;;27.17;14.27;;;7.80;82.20;;;;;;4917002;29;20059;-69
2022/03/16 01:29:11;;;;;;;32.25;15.02;;;7.70;82.30;;;;;;4934037;29;20044;-69
2022/03/16 01:31:39;;;;;;;27.02;14.80;;;7.70;82.40;;;;;;4916946;29;20048;-69
2022/03/16 01:34:07;;;;;;;35.45;15.25;;;7.70;82.50;;;;;;4914944;29;20059;-69
2022/03/16 01:36:34;;;;;;;32.92;15.32;;;7.70;82.60;;;;;;4917180;29;20047;-69
2022/03/16 01:39:02;;;;;;;33.42;15.70;;;7.70;82.70;;;;;;4916303;29;20043;-69
2022/03/16 01:41:30;;;;;;;35.00;16.95;;;7.70;82.80;;;;;;4933985;29;20059;-70
2022/03/16 01:43:58;;;;;;;32.45;15.20;;;7.70;82.90;;;;;;4917205;29;20386;-69
2022/03/16 01:46:29;;;;;;;35.22;15.85;;;7.70;82.90;;;;;;4916745;29;20500;-69
2022/03/16 01:48:58;;;;;;;30.13;16.15;;;7.70;83.00;;;;;;4930433;29;20047;-70
2022/03/16 01:51:26;;;;;;;36.20;17.10;;;7.70;83.00;;;;;;4901303;29;20048;-70
2022/03/16 01:53:58;;;;;;;31.40;16.13;;;7.70;83.10;;;;;;4933689;29;20039;-69
2022/03/16 01:56:26;;;;;;;29.77;17.00;;;7.70;83.10;;;;;;4916030;29;20047;-70
2022/03/16 01:58:53;;;;;;;35.30;17.48;;;7.70;83.30;;;;;;4916994;29;20040;-70
2022/03/16 02:01:21;;;;;;;36.28;17.30;;;7.70;83.30;;;;;;4900529;29;20092;-69
2022/03/16 02:03:49;;;;;;;31.67;17.17;;;7.70;83.40;;;;;;4901962;29;20052;-70
2022/03/16 02:06:16;;;;;;;36.95;17.60;;;7.70;83.50;;;;;;4916744;29;20047;-69
2022/03/16 02:08:45;;;;;;;27.13;17.40;;;7.70;83.60;;;;;;4933340;29;20050;-69
2022/03/16 02:11:14;;;;;;;35.42;17.55;;;7.60;83.80;;;;;;4932930;29;20072;-69
2022/03/16 02:13:41;;;;;;;29.33;17.48;;;7.60;83.80;;;;;;4933769;29;20031;-70
2022/03/16 02:16:10;;;;;;;37.20;18.63;;;7.60;84.00;;;;;;4915808;29;20047;-69
2022/03/16 02:18:38;;;;;;;32.97;18.17;;;7.60;84.00;;;;;;4932455;29;20497;-69
2022/03/16 02:21:07;;;;;;;30.65;18.30;;;7.60;84.00;;;;;;4933585;29;20052;-69
2022/03/16 02:23:35;;;;;;;36.83;18.38;;;7.60;84.10;;;;;;4933230;29;20081;-69
2022/03/16 02:26:02;;;;;;;40.72;19.15;;;7.60;84.10;;;;;;4933358;29;20106;-69
2022/03/16 02:28:30;;;;;;;32.28;18.27;;;7.60;84.20;;;;;;4933151;29;20043;-69
2022/03/16 02:30:59;;;;;;;34.97;19.40;;;7.60;84.20;;;;;;4932408;29;20059;-69
2022/03/16 02:33:27;;;;;;;38.78;19.27;;;7.50;84.30;;;;;;4932796;29;20048;-69
2022/03/16 02:35:54;;;;;;;37.35;19.75;;;7.40;84.40;;;;;;4934421;29;20051;-69
2022/03/16 02:38:22;;;;;;;37.67;19.40;;;7.40;84.50;;;;;;4937711;29;20404;-69
2022/03/16 02:40:50;;;;;;;44.55;21.13;;;7.40;84.50;;;;;;4936188;29;20047;-69
2022/03/16 02:43:17;;;;;;;41.40;21.70;;;7.30;84.60;;;;;;4937189;29;20047;-69
2022/03/16 02:45:45;;;;;;;41.75;20.85;;;7.30;84.70;;;;;;4936041;29;20526;-69
2022/03/16 02:48:12;;;;;;;41.42;21.02;;;7.30;84.80;;;;;;4934996;29;20054;-69
2022/03/16 02:50:40;;;;;;;43.97;22.35;;;7.30;84.90;;;;;;4936423;29;20043;-69
2022/03/16 02:53:08;;;;;;;34.55;22.00;;;7.30;84.90;;;;;;4937122;29;20059;-69
2022/03/16 02:55:47;;;;;;;42.15;22.17;;;7.30;85.00;;;;;;4921379;29;20055;-69
2022/03/16 02:58:16;;;;;;;40.25;22.00;;;7.30;85.10;;;;;;4919664;29;20044;-69
2022/03/16 03:00:44;;;;;;;42.83;23.90;;;7.30;85.20;;;;;;4934047;29;20051;-70
2022/03/16 03:03:12;;;;;;;45.95;23.80;;;7.30;85.30;;;;;;4919783;29;20449;-70
2022/03/16 03:05:40;;;;;;;49.20;23.85;;;7.30;85.40;;;;;;4936975;29;20055;-69
2022/03/16 03:08:08;;;;;;;44.97;23.80;;;7.30;85.50;;;;;;4934085;29;20047;-70
2022/03/16 03:10:36;;;;;;;44.72;23.73;;;7.30;85.60;;;;;;4919503;29;20051;-70
2022/03/16 03:13:04;;;;;;;44.42;24.42;;;7.30;85.60;;;;;;4936769;29;20048;-70
2022/03/16 03:15:32;;;;;;;50.80;25.75;;;7.40;85.60;;;;;;4919753;29;20044;-70
2022/03/16 03:17:59;;;;;;;42.08;25.10;;;7.30;85.60;;;;;;4936149;29;20055;-69
2022/03/16 03:20:27;;;;;;;44.83;24.63;;;7.30;85.70;;;;;;4919362;29;20545;-70
2022/03/16 03:22:55;;;;;;;45.30;25.05;;;7.30;85.80;;;;;;4919096;29;20102;-69
2022/03/16 03:25:23;;;;;;;44.60;24.40;;;7.30;85.90;;;;;;4936544;29;20043;-70
2022/03/16 03:27:50;;;;;;;48.65;24.80;;;7.30;86.00;;;;;;4934625;29;20047;-69
2022/03/16 03:30:18;;;;;;;53.88;25.98;;;7.40;86.00;;;;;;4935587;29;20043;-69
2022/03/16 03:32:45;;;;;;;48.85;25.63;;;7.40;86.00;;;;;;4935633;29;20055;-69
2022/03/16 03:35:13;;;;;;;49.55;25.63;;;7.40;86.10;;;;;;4936647;29;20067;-69
2022/03/16 03:37:41;;;;;;;47.97;26.27;;;7.40;86.10;;;;;;4934109;29;20103;-69
2022/03/16 03:40:09;;;;;;;45.83;26.65;;;7.30;86.20;;;;;;4935486;29;20058;-69
2022/03/16 03:42:36;;;;;;;50.40;27.02;;;7.30;86.20;;;;;;4935896;29;20056;-69
2022/03/16 03:45:04;;;;;;;49.72;27.02;;;7.30;86.20;;;;;;4936430;29;20048;-69
2022/03/16 03:47:32;;;;;;;45.45;26.88;;;7.30;86.20;;;;;;4902905;29;22062;-69
2022/03/16 03:50:00;;;;;;;48.22;26.92;;;7.30;86.30;;;;;;4918918;29;20055;-69
2022/03/16 03:52:27;;;;;;;52.85;28.73;;;7.30;86.30;;;;;;4934974;29;20059;-69
2022/03/16 03:54:55;;;;;;;52.55;27.45;;;7.30;86.40;;;;;;4935638;29;20051;-69
2022/03/16 03:57:22;;;;;;;50.72;29.10;;;7.30;86.30;;;;;;4917758;29;20051;-70
2022/03/16 03:59:50;;;;;;;56.65;29.23;;;7.30;86.40;;;;;;4918542;29;20434;-69
2022/03/16 04:02:17;;;;;;;55.30;27.77;;;7.30;86.40;;;;;;4902980;29;20047;-69
2022/03/16 04:04:45;;;;;;;53.10;29.40;;;7.30;86.40;;;;;;4934858;29;20047;-69
2022/03/16 04:07:13;;;;;;;57.78;30.23;;;7.20;86.50;;;;;;4918764;29;20052;-70
2022/03/16 04:09:41;;;;;;;57.92;29.55;;;7.20;86.60;;;;;;4935076;29;20055;-69
2022/03/16 04:12:09;;;;;;;58.40;30.15;;;7.30;86.60;;;;;;4934281;29;20052;-69
2022/03/16 04:14:36;;;;;;;58.53;30.83;;;7.20;86.60;;;;;;4935954;29;20044;-69
2022/03/16 04:17:04;;;;;;;58.08;31.70;;;7.20;86.60;;;;;;4935481;29;20410;-69
2022/03/16 04:19:32;;;;;;;55.80;32.03;;;7.20;86.70;;;;;;4935516;29;20392;-69
2022/03/16 04:21:59;;;;;;;51.80;31.00;;;7.10;86.70;;;;;;4918305;29;20067;-69
2022/03/16 04:24:27;;;;;;;54.38;31.60;;;7.10;86.80;;;;;;4935308;29;20052;-69
2022/03/16 04:26:55;;;;;;;59.28;31.50;;;7.10;86.80;;;;;;4935132;29;20553;-69
2022/03/16 04:29:22;;;;;;;60.83;32.03;;;7.00;86.90;;;;;;4917660;29;20413;-69
2022/03/16 04:31:50;;;;;;;63.35;33.42;;;7.00;86.90;;;;;;4933571;29;21834;-69
2022/03/16 04:34:18;;;;;;;60.88;31.85;;;6.90;87.00;;;;;;4935212;29;20036;-69
2022/03/16 04:36:45;;;;;;;63.28;33.75;;;6.80;87.10;;;;;;4935015;29;20510;-69
2022/03/16 04:39:13;;;;;;;66.63;34.70;;;6.80;87.20;;;;;;4934806;29;20052;-69
2022/03/16 04:41:41;;;;;;;73.57;36.72;;;6.80;87.30;;;;;;4932439;29;20039;-69
2022/03/16 04:44:09;;;;;;;65.90;35.53;;;6.90;87.30;;;;;;4934855;29;20417;-69
2022/03/16 04:46:38;;;;;;;69.88;35.65;;;6.90;87.30;;;;;;4933074;29;20058;-69
2022/03/16 04:49:05;;;;;;;65.50;37.75;;;7.00;87.30;;;;;;4934668;29;20050;-69
2022/03/16 04:51:33;;;;;;;61.75;35.90;;;7.00;87.20;;;;;;4934787;29;20051;-69
2022/03/16 04:54:01;;;;;;;67.32;36.92;;;7.00;87.20;;;;;;4917830;29;20048;-69
2022/03/16 04:56:29;;;;;;;62.47;35.03;;;7.10;87.20;;;;;;4917573;29;20055;-69
2022/03/16 04:58:56;;;;;;;67.07;36.78;;;7.10;87.20;;;;;;4932971;29;20052;-69
2022/03/16 05:01:24;;;;;;;59.45;36.85;;;7.10;87.20;;;;;;4934567;29;20489;-69
2022/03/16 05:03:51;;;;;;;63.42;36.88;;;7.10;87.20;;;;;;4917584;29;20070;-69
2022/03/16 05:06:20;;;;;;;70.82;37.58;;;7.10;87.20;;;;;;4914911;29;20053;-69
2022/03/16 05:08:47;;;;;;;75.00;38.92;;;7.10;87.30;;;;;;4933518;29;20060;-69
2022/03/16 05:11:16;;;;;;;63.28;37.25;;;7.00;87.40;;;;;;4934120;29;20055;-69
2022/03/16 05:13:44;;;;;;;68.00;37.55;;;7.00;87.40;;;;;;4934096;29;20070;-69
2022/03/16 05:16:11;;;;;;;63.38;37.47;;;7.00;87.50;;;;;;4913859;29;20078;-69
2022/03/16 05:18:40;;;;;;;64.93;38.38;;;7.00;87.50;;;;;;4931780;29;20059;-69
2022/03/16 05:21:08;;;;;;;66.28;36.03;;;7.00;87.60;;;;;;4934339;29;20050;-69
2022/03/16 05:23:36;;;;;;;63.47;35.92;;;7.00;87.50;;;;;;4933865;29;20070;-70
2022/03/16 05:26:04;;;;;;;63.10;36.33;;;7.00;87.60;;;;;;4917321;29;20047;-69
2022/03/16 05:28:33;;;;;;;63.40;36.00;;;7.00;87.50;;;;;;4933936;29;20059;-69
2022/03/16 05:31:01;;;;;;;60.88;35.45;;;7.10;87.50;;;;;;4917162;29;20048;-70
2022/03/16 05:33:28;;;;;;;65.95;36.85;;;7.10;87.50;;;;;;4901268;29;20516;-69
2022/03/16 05:35:56;;;;;;;73.43;37.90;;;7.10;87.50;;;;;;4928416;29;20402;-70
2022/03/16 05:38:23;;;;;;;71.22;36.25;;;7.10;87.50;;;;;;4930032;29;20059;-69
2022/03/16 05:40:51;;;;;;;71.97;38.58;;;7.10;87.50;;;;;;4933902;29;20047;-70
2022/03/16 05:43:21;;;;;;;65.20;37.72;;;7.10;87.50;;;;;;4933961;29;20052;-70
2022/03/16 05:45:50;;;;;;;73.47;37.67;;;7.20;87.50;;;;;;4933446;29;20063;-69
2022/03/16 05:48:18;;;;;;;66.57;35.92;;;7.10;87.50;;;;;;4917013;29;20397;-70
2022/03/16 05:50:46;;;;;;;68.40;37.17;;;7.20;87.50;;;;;;4917077;29;20055;-70
2022/03/16 05:53:14;;;;;;;67.95;37.78;;;7.10;87.50;;;;;;4917026;29;20047;-69
2022/03/16 05:55:42;;;;;;;65.15;36.70;;;7.10;87.50;;;;;;4915903;29;20055;-69
2022/03/16 05:58:10;;;;;;;73.80;37.67;;;7.10;87.50;;;;;;4932517;29;20050;-69
2022/03/16 06:00:40;;;;;;;72.28;38.92;;;7.00;87.60;;;;;;4932393;29;20044;-69
2022/03/16 06:03:10;;;;;;;74.15;39.03;;;7.00;87.60;;;;;;4916253;29;20063;-69
2022/03/16 06:05:38;;;;;;;78.05;38.60;;;6.90;87.70;;;;;;4933104;29;20513;-69
2022/03/16 06:08:06;;;;;;;76.65;40.67;;;6.90;87.70;;;;;;4933024;29;20060;-69
2022/03/16 06:10:33;;;;;;;78.30;42.22;;;6.90;87.80;;;;;;4932723;29;20051;-70
2022/03/16 06:13:04;;;;;;;74.78;41.22;;;6.90;87.80;;;;;;4940029;29;20055;-69
2022/03/16 06:15:43;;;;;;;75.50;41.03;;;7.00;87.90;;;;;;4936865;29;20040;-70
2022/03/16 06:18:11;;;;;;;73.90;39.40;;;7.00;87.90;;;;;;4922881;29;20547;-69
2022/03/16 06:20:39;;;;;;;74.22;40.92;;;7.00;87.80;;;;;;4922538;29;20051;-70
2022/03/16 06:23:08;;;;;;;74.88;38.75;;;7.10;87.80;;;;;;4939165;29;20051;-69
2022/03/16 06:25:40;;;;;;;;;;;7.10;87.80;;;;;;4940655;29;20094;-69
2022/03/16 06:28:08;;;;;;;78.57;41.17;;;7.10;87.80;;;;;;4939469;29;20137;-69
2022/03/16 06:30:35;;;;;;;73.85;39.92;;;7.10;87.70;;;;;;4922186;29;20039;-69
2022/03/16 06:33:04;;;;;;;72.35;39.47;;;7.10;87.70;;;;;;4936619;29;20040;-70
2022/03/16 06:35:32;;;;;;;81.32;41.70;;;7.10;87.70;;;;;;4937185;29;20039;-69
2022/03/16 06:38:00;;;;;;;80.22;41.70;;;7.10;87.70;;;;;;4939100;29;20059;-68
2022/03/16 06:40:27;;;;;;;91.55;43.05;;;7.10;87.80;;;;;;4938515;29;20051;-70
2022/03/16 06:42:58;;;;;;;77.97;44.17;;;7.00;87.90;;;;;;4939740;29;20051;-71
2022/03/16 06:45:28;;;;;;;78.88;44.63;;;7.10;87.90;;;;;;4939984;29;20040;-71
2022/03/16 06:48:00;;;;;;;79.13;42.63;;;7.10;88.00;;;;;;4922263;29;20048;-71
2022/03/16 06:50:30;;;;;;;81.07;41.38;;;7.20;88.00;;;;;;4919861;29;20055;-71
2022/03/16 06:52:58;;;;;;;86.28;42.40;;;7.30;88.00;;;;;;4938805;29;20055;-71
2022/03/16 06:55:29;;;;;;;89.57;42.53;;;7.30;87.90;;;;;;4922615;29;20060;-71
2022/03/16 06:57:56;;;;;;;83.03;42.60;;;7.30;87.90;;;;;;4936113;29;20417;-71
2022/03/16 07:00:24;;;;;;;76.15;41.95;;;7.40;87.90;;;;;;4938495;29;20051;-71
2022/03/16 07:02:58;;;;;;;81.75;42.05;;;7.40;87.80;;;;;;4922682;29;20051;-71
2022/03/16 07:05:32;;;;;;;79.20;43.63;;;7.50;87.80;;;;;;4939174;29;20047;-71
2022/03/16 07:08:02;;;;;;;77.13;41.20;;;7.50;87.80;;;;;;4922230;29;20055;-71
2022/03/16 07:10:32;;;;;;;74.68;41.95;;;7.60;87.80;;;;;;4939007;29;20048;-71
2022/03/16 07:13:00;;;;;;;74.88;42.03;;;7.70;87.80;;;;;;4938328;29;20048;-71
2022/03/16 07:15:30;;;;;;;68.65;38.45;;;7.70;87.80;;;;;;4939017;29;20051;-71
2022/03/16 07:18:01;;;;;;;73.68;40.80;;;7.70;87.70;;;;;;4938874;29;20043;-71
2022/03/16 07:20:29;;;;;;;77.85;42.83;;;7.80;87.70;;;;;;4938235;29;20062;-71
2022/03/16 07:23:13;;;;;;;74.82;41.17;;;7.80;87.60;;;;;;4934920;29;20051;-71
2022/03/16 07:25:49;;;;;;;68.80;40.05;;;7.90;87.60;;;;;;4934652;29;20051;-71
2022/03/16 07:28:19;;;;;;;74.40;39.15;;;7.90;87.60;;;;;;4917532;29;20047;-71
2022/03/16 07:30:47;;;;;;;67.60;36.80;;;8.00;87.50;;;;;;4935569;29;20058;-72
2022/03/16 07:33:16;;;;;;;67.25;36.90;;;8.00;87.50;;;;;;4936748;29;20043;-71
2022/03/16 07:35:44;;;;;;;69.85;38.78;;;8.10;87.40;;;;;;4935290;29;20059;-71
2022/03/16 07:38:13;;;;;;;66.97;37.53;;;8.10;87.40;;;;;;4935763;29;20044;-71
2022/03/16 07:40:41;;;;;;;66.88;37.50;;;8.20;87.40;;;;;;4932511;29;20485;-71
2022/03/16 07:43:10;;;;;;;73.43;38.58;;;8.30;87.30;;;;;;4916405;29;20051;-72
2022/03/16 07:45:38;;;;;;;66.22;36.22;;;8.30;87.20;;;;;;4918067;29;20055;-71
2022/03/16 07:48:06;;;;;;;68.97;37.70;;;8.30;87.20;;;;;;4935250;29;20055;-71
2022/03/16 07:50:34;;;;;;;73.65;39.13;;;8.30;87.10;;;;;;4933136;29;20418;-71
2022/03/16 07:53:02;;;;;;;70.05;38.92;;;8.30;87.00;;;;;;4919065;29;20046;-71
2022/03/16 07:55:30;;;;;;;70.05;38.47;;;8.40;87.00;;;;;;4916659;29;20043;-71
2022/03/16 07:57:59;;;;;;;70.07;39.17;;;8.30;87.00;;;;;;4935590;29;20044;-71
2022/03/16 08:00:27;;;;;;;65.55;37.80;;;8.40;86.90;;;;;;4935149;29;20048;-70
2022/03/16 08:03:01;;;;;;;71.85;38.75;;;8.40;86.90;;;;;;4927538;29;20051;-71
2022/03/16 08:05:30;;;;;;;68.65;38.00;;;8.50;86.90;;;;;;4932175;29;20039;-70
2022/03/16 08:07:58;;;;;;;64.05;36.63;;;8.60;86.90;;;;;;4901378;29;20055;-70
2022/03/16 08:10:26;;;;;;;73.22;38.38;;;8.60;86.90;;;;;;4936031;29;20051;-71
2022/03/16 08:12:53;;;;;;;66.70;37.60;;;8.80;86.90;;;;;;4935960;29;20401;-71
2022/03/16 08:15:21;;;;;;;64.95;37.38;;;8.80;86.70;;;;;;4918277;29;20501;-70
2022/03/16 08:17:50;;;;;;;64.97;37.35;;;8.90;86.50;;;;;;4918221;29;20055;-71
2022/03/16 08:20:17;;;;;;;69.20;38.17;;;9.00;86.40;;;;;;4932020;29;20048;-71
2022/03/16 08:22:45;;;;;;;71.78;39.08;;;9.00;86.40;;;;;;4936549;29;20055;-71
2022/03/16 08:25:12;;;;;;;69.10;39.72;;;9.10;86.30;;;;;;4934851;29;20062;-71
2022/03/16 08:27:40;;;;;;;66.22;38.75;;;9.20;86.20;;;;;;4914882;29;20054;-71
2022/03/16 08:30:10;;;;;;;67.75;38.78;;;9.30;86.10;;;;;;4934683;29;20035;-71
2022/03/16 08:32:37;;;;;;;73.32;38.30;;;9.30;86.00;;;;;;4899328;29;20051;-71
2022/03/16 08:35:08;;;;;;;70.88;39.38;;;9.40;85.90;;;;;;4934348;29;20056;-70
2022/03/16 08:37:36;;;;;;;64.28;38.03;;;9.40;85.80;;;;;;4918757;29;20047;-71
2022/03/16 08:40:05;;;;;;;71.28;38.92;;;9.40;85.70;;;;;;4934641;29;20398;-69
2022/03/16 08:42:33;;;;;;;70.22;38.28;;;9.40;85.60;;;;;;4914002;29;20051;-70
2022/03/16 08:45:01;;;;;;;67.55;38.78;;;9.40;85.50;;;;;;4936302;29;20055;-70
2022/03/16 08:47:29;;;;;;;68.53;39.15;;;9.30;85.50;;;;;;4918714;29;20393;-70
2022/03/16 08:49:56;;;;;;;72.57;40.55;;;9.30;85.50;;;;;;4935978;29;20054;-70
2022/03/16 08:52:24;;;;;;;76.45;40.95;;;9.30;85.60;;;;;;4936055;29;20055;-70
2022/03/16 08:54:52;;;;;;;72.53;40.90;;;9.30;85.60;;;;;;4919161;29;20048;-70
2022/03/16 08:57:21;;;;;;;75.47;41.17;;;9.10;85.60;;;;;;4934555;29;20051;-70
2022/03/16 08:59:50;;;;;;;75.53;41.95;;;9.10;85.70;;;;;;4936013;29;20048;-70
2022/03/16 09:02:17;;;;;;;80.03;42.38;;;9.00;85.80;;;;;;4935560;29;20054;-70
2022/03/16 09:04:45;;;;;;;84.63;42.53;;;9.00;85.80;;;;;;4932691;29;20055;-70
2022/03/16 09:07:13;;;;;;;84.45;44.05;;;9.00;85.90;;;;;;4935511;29;20044;-70
2022/03/16 09:09:41;;;;;;;85.10;44.47;;;9.00;86.00;;;;;;4935700;29;20060;-70
2022/03/16 09:12:11;;;;;;;79.68;44.50;;;8.90;86.00;;;;;;4936099;29;20043;-70
2022/03/16 09:14:39;;;;;;;93.72;47.88;;;8.90;86.10;;;;;;4935544;29;20510;-69
2022/03/16 09:17:10;;;;;;;91.25;48.65;;;8.90;86.10;;;;;;4918324;29;20058;-70
2022/03/16 09:19:39;;;;;;;95.75;50.53;;;8.80;86.20;;;;;;4935464;29;20051;-70
2022/03/16 09:22:07;;;;;;;92.70;49.30;;;8.80;86.30;;;;;;4934915;29;20056;-70
2022/03/16 09:24:38;;;;;;;105.50;50.47;;;8.80;86.40;;;;;;4935421;29;20062;-70
2022/03/16 09:27:07;;;;;;;103.57;50.72;;;8.90;86.50;;;;;;4935206;29;20041;-70
2022/03/16 09:29:34;;;;;;;97.03;48.92;;;8.90;86.50;;;;;;4918427;29;20062;-70
2022/03/16 09:32:07;;;;;;;104.93;49.75;;;8.90;86.50;;;;;;4935077;29;20050;-70
2022/03/16 09:34:37;;;;;;;107.80;50.88;;;8.90;86.50;;;;;;4934695;29;20055;-70
2022/03/16 09:37:05;;;;;;;107.15;51.10;;;8.90;86.60;;;;;;4917279;29;20051;-70
2022/03/16 09:39:33;;;;;;;108.57;50.28;;;8.90;86.60;;;;;;4910846;29;20060;-71
2022/03/16 09:42:03;;;;;;;104.70;50.47;;;8.90;86.80;;;;;;4932743;29;20401;-70
2022/03/16 09:44:31;;;;;;;110.80;52.13;;;8.90;86.90;;;;;;4924755;29;20070;-71
2022/03/16 09:47:00;;;;;;;117.93;52.80;;;8.90;86.90;;;;;;4917831;29;20048;-70
2022/03/16 09:49:28;;;;;;;119.68;54.78;;;8.90;87.00;;;;;;4934816;29;20144;-71
2022/03/16 09:51:57;;;;;;;109.97;52.15;;;8.90;87.10;;;;;;4935195;29;20054;-71
2022/03/16 09:54:25;;;;;;;114.85;52.75;;;9.00;87.10;;;;;;4933971;29;20051;-71
2022/03/16 09:56:54;;;;;;;116.15;51.33;;;9.00;87.10;;;;;;4932868;29;20379;-71
2022/03/16 09:59:22;;;;;;;114.10;52.75;;;9.00;87.20;;;;;;4934760;29;20051;-71
2022/03/16 10:02:09;;;;;;;105.97;52.60;;;9.00;87.20;;;;;;4932988;29;20477;-71
2022/03/16 10:04:38;;;;;;;112.80;52.58;;;9.10;87.20;;;;;;4934875;29;20063;-71
2022/03/16 10:07:06;;;;;;;112.20;51.22;;;9.10;87.30;;;;;;4934996;29;20043;-71
2022/03/16 10:15:12;;;;;;;109.97;52.78;;;9.30;87.20;;;;;;4934512;29;20516;-71
2022/03/16 10:17:44;;;;;;;104.43;49.85;;;9.30;87.30;;;;;;4933938;29;20487;-71
2022/03/16 10:20:26;;;;;;;93.78;49.33;;;9.40;87.40;;;;;;4933393;29;20078;-71
2022/03/16 10:23:12;;;;;;;93.35;47.60;;;9.50;87.40;;;;;;4898303;29;20052;-72
2022/03/16 10:25:51;;;;;;;88.85;45.63;;;9.70;87.30;;;;;;4917897;29;20044;-73
2022/03/16 10:28:22;;;;;;;71.50;39.70;;;9.90;87.10;;;;;;4917755;29;20394;-72
2022/03/16 10:31:03;;;;;;;78.93;41.88;;;10.10;87.00;;;;;;4917910;29;20520;-72
2022/03/16 10:33:42;;;;;;;70.10;37.17;;;10.30;86.80;;;;;;4934811;29;20048;-72
2022/03/16 10:36:18;;;;;;;61.38;35.28;;;10.40;86.40;;;;;;4917461;29;20398;-71
2022/03/16 10:39:03;;;;;;;56.70;33.90;;;10.50;86.10;;;;;;4917712;29;20055;-72
2022/03/16 10:47:11;;;;;;;62.20;35.63;;;10.80;85.50;;;;;;4933654;29;20075;-72
2022/03/16 10:49:39;;;;;;;59.67;33.95;;;10.90;85.20;;;;;;4917496;29;20051;-71
2022/03/16 10:52:12;;;;;;;55.45;32.33;;;10.80;85.00;;;;;;4934471;29;20048;-72
2022/03/16 10:54:41;;;;;;;54.23;31.27;;;10.90;84.90;;;;;;4917736;29;20517;-72
2022/03/16 10:57:12;;;;;;;51.83;30.83;;;10.80;84.70;;;;;;4918310;29;20309;-72
2022/03/16 10:59:42;;;;;;;51.95;31.17;;;10.80;84.60;;;;;;4938061;29;20064;-71
2022/03/16 11:02:12;;;;;;;47.80;28.50;;;10.80;84.50;;;;;;4937828;29;20055;-72
2022/03/16 11:04:46;;;;;;;44.03;27.00;;;10.80;84.60;;;;;;4937801;29;20371;-71
2022/03/16 11:07:14;;;;;;;39.25;25.67;;;10.80;84.50;;;;;;4920532;29;20052;-72
2022/03/16 11:09:42;;;;;;;35.30;21.75;;;10.90;84.50;;;;;;4936769;29;20524;-71
2022/03/16 11:15:04;;;;;;;35.50;21.98;;;11.20;83.90;;;;;;4937725;29;20055;-70
2022/03/16 11:17:37;;;;;;;34.50;21.67;;;11.30;83.60;;;;;;4920679;29;20035;-72
2022/03/16 11:20:08;;;;;;;41.88;22.02;;;11.30;83.20;;;;;;4937681;29;20375;-71
2022/03/16 11:26:25;;;;;;;34.13;22.17;;;11.40;82.70;;;;;;4920393;29;20120;-72
2022/03/16 11:29:13;;;;;;;37.80;23.02;;;11.50;82.40;;;;;;4937290;29;20513;-72
2022/03/16 11:31:42;;;;;;;42.55;24.08;;;11.50;82.20;;;;;;4920937;29;20107;-71
2022/03/16 11:34:11;;;;;;;45.88;27.48;;;11.50;82.20;;;;;;4936903;29;20059;-72
2022/03/16 11:36:41;;;;;;;47.05;27.70;;;11.50;82.10;;;;;;4936943;29;20055;-73
2022/03/16 11:39:18;;;;;;;47.78;28.42;;;11.60;82.00;;;;;;4919869;29;20043;-71
2022/03/16 11:41:50;;;;;;;46.65;27.95;;;11.50;82.10;;;;;;4918889;29;20055;-72
2022/03/16 11:44:25;;;;;;;47.00;28.40;;;11.60;82.20;;;;;;4937324;29;20381;-72
2022/03/16 11:47:22;;;;;;;46.22;28.50;;;11.50;82.10;;;;;;4901305;29;20056;-72
2022/03/16 11:50:11;;;;;;;45.63;28.70;;;11.50;82.10;;;;;;4918584;29;20078;-72
2022/03/16 11:53:00;;;;;;;50.40;28.98;;;11.50;82.00;;;;;;4935889;29;20035;-73
2022/03/16 11:55:46;;;;;;;41.90;26.17;;;11.40;81.90;;;;;;4919612;29;20054;-72
2022/03/16 11:58:29;;;;;;;42.55;26.08;;;11.50;81.80;;;;;;4901239;29;20040;-72
2022/03/16 12:01:28;;;;;;;46.33;27.45;;;11.50;81.60;;;;;;4918915;29;20067;-73
2022/03/16 12:04:11;;;;;;;41.65;25.65;;;11.50;81.60;;;;;;4936646;29;20405;-72
2022/03/16 12:07:02;;;;;;;43.85;27.10;;;11.30;81.40;;;;;;4937110;29;20516;-72
2022/03/16 12:09:34;;;;;;;44.30;26.00;;;11.30;81.20;;;;;;4934521;29;20507;-72
2022/03/16 12:15:00;;;;;;;44.28;26.48;;;11.00;81.40;;;;;;4935789;29;20048;-72
2022/03/16 12:17:28;;;;;;;44.10;25.63;;;10.90;81.50;;;;;;4935150;29;20055;-72
2022/03/16 12:20:25;;;;;;;43.97;25.13;;;10.80;81.60;;;;;;4936083;29;20082;-72
2022/03/16 12:22:55;;;;;;;41.17;23.90;;;10.80;81.70;;;;;;4936639;29;20067;-72
2022/03/16 12:25:31;;;;;;;41.88;23.85;;;10.80;81.80;;;;;;4918000;29;20059;-72
2022/03/16 12:31:07;;;;;;;44.25;26.17;;;10.70;82.00;;;;;;4936472;29;20051;-72
2022/03/16 12:33:47;;;;;;;49.17;28.00;;;10.70;82.00;;;;;;4917866;29;20047;-72
2022/03/16 12:36:21;;;;;;;39.67;25.40;;;10.70;82.00;;;;;;4933807;29;20607;-73
2022/03/16 12:38:52;;;;;;;40.65;25.20;;;10.70;82.10;;;;;;4903625;29;20047;-73
2022/03/16 12:44:12;;;;;;;46.70;25.35;;;10.60;82.30;;;;;;4920440;29;20040;-73
2022/03/16 12:47:07;;;;;;;51.83;26.33;;;10.50;82.50;;;;;;4936324;29;20048;-68
2022/03/16 12:49:43;;;;;;;43.75;26.55;;;10.50;82.60;;;;;;4935161;29;20043;-67
2022/03/16 12:52:11;;;;;;;46.53;26.08;;;10.30;82.60;;;;;;4935899;29;20055;-66
2022/03/16 12:54:41;;;;;;;52.67;27.77;;;10.30;82.80;;;;;;4935932;29;20071;-66
2022/03/16 12:57:15;;;;;;;54.38;28.15;;;10.30;82.90;;;;;;4936270;29;20051;-67
2022/03/16 12:59:56;;;;;;;53.92;29.88;;;10.20;83.00;;;;;;4934952;29;20418;-66
2022/03/16 13:02:34;;;;;;;49.95;28.90;;;10.20;83.20;;;;;;4935887;29;20051;-67
2022/03/16 13:05:03;;;;;;;57.28;30.83;;;10.10;83.30;;;;;;4935159;29;20494;-72
2022/03/16 13:07:30;;;;;;;69.82;32.38;;;10.10;83.50;;;;;;4934588;29;20067;-72
2022/03/16 13:10:00;;;;;;;57.95;30.65;;;10.10;83.60;;;;;;4918919;29;20494;-71
2022/03/16 13:12:28;;;;;;;55.33;30.92;;;10.10;83.80;;;;;;4935639;29;20062;-71
2022/03/16 13:14:57;;;;;;;55.20;30.85;;;10.10;84.00;;;;;;4935449;29;20051;-71